createdAt,value
2018-06-03T00:01:05.125Z,39.85
2018-06-03T00:03:33.218Z,42.90
2018-06-03T00:06:01.287Z,33.73
2018-06-03T00:08:29.413Z,36.05
2018-06-03T00:10:57.482Z,29.85
2018-06-03T00:13:25.532Z,41.68
2018-06-03T00:15:53.589Z,35.33
2018-06-03T00:18:21.646Z,35.35
2018-06-03T00:21:03.795Z,47.35
2018-06-03T00:23:31.844Z,46.88
2018-06-03T00:25:59.892Z,42.05
2018-06-03T00:28:27.948Z,45.63
2018-06-03T00:30:55.996Z,37.90
2018-06-03T00:33:24.058Z,35.65
2018-06-03T00:36:03.476Z,35.85
2018-06-03T00:38:31.534Z,34.10
2018-06-03T00:40:59.580Z,29.00
2018-06-03T00:43:27.631Z,33.83
2018-06-03T00:45:55.672Z,26.57
2018-06-03T00:48:23.720Z,31.73
2018-06-03T00:50:51.768Z,30.32
2018-06-03T00:53:19.862Z,31.77
2018-06-03T00:55:47.909Z,38.55
2018-06-03T00:58:15.956Z,35.78
2018-06-03T01:00:44.060Z,44.38
2018-06-03T01:03:12.117Z,45.58
2018-06-03T01:05:40.160Z,31.57
2018-06-03T01:08:08.204Z,38.67
2018-06-03T01:10:36.253Z,41.05
2018-06-03T01:13:04.397Z,44.75
2018-06-03T01:15:32.441Z,35.00
2018-06-03T01:18:00.517Z,33.60
2018-06-03T01:20:28.559Z,36.85
2018-06-03T01:22:56.622Z,32.48
2018-06-03T01:25:24.676Z,43.13
2018-06-03T01:27:52.797Z,29.60
2018-06-03T01:30:20.857Z,31.65
2018-06-03T01:32:48.948Z,34.23
2018-06-03T01:35:17.024Z,32.48
2018-06-03T01:37:45.077Z,31.73
2018-06-03T01:40:13.116Z,37.35
2018-06-03T01:42:41.176Z,37.08
2018-06-03T01:45:09.212Z,36.73
2018-06-03T01:47:37.260Z,40.30
2018-06-03T01:50:05.369Z,36.40
2018-06-03T01:52:33.421Z,41.33
2018-06-03T01:55:01.468Z,23.62
2018-06-03T01:57:29.522Z,31.23
2018-06-03T01:59:57.589Z,31.45
2018-06-03T02:02:25.663Z,31.35
2018-06-03T02:04:53.742Z,33.58
2018-06-03T02:07:21.789Z,33.15
2018-06-03T02:09:49.845Z,32.83
2018-06-03T02:12:17.879Z,32.45
2018-06-03T02:14:45.936Z,34.10
2018-06-03T02:17:13.982Z,39.08
2018-06-03T02:19:42.036Z,34.65
2018-06-03T02:22:10.119Z,34.18
2018-06-03T02:24:38.247Z,24.37
2018-06-03T02:27:06.285Z,38.73
2018-06-03T02:29:34.333Z,35.03
2018-06-03T02:32:02.353Z,34.27
2018-06-03T02:34:30.401Z,33.58
2018-06-03T02:36:58.433Z,33.80
2018-06-03T02:39:26.520Z,45.40
2018-06-03T02:41:54.580Z,33.45
2018-06-03T02:44:22.621Z,32.48
2018-06-03T02:46:50.718Z,37.25
2018-06-03T02:49:18.760Z,31.42
2018-06-03T02:51:46.885Z,36.83
2018-06-03T02:54:14.928Z,27.40
2018-06-03T02:56:42.997Z,34.50
2018-06-03T02:59:11.077Z,34.13
2018-06-03T03:01:39.241Z,32.80
2018-06-03T03:04:07.281Z,30.10
2018-06-03T03:06:35.333Z,39.73
2018-06-03T03:09:03.550Z,30.15
2018-06-03T03:11:31.677Z,28.92
2018-06-03T03:13:59.745Z,24.60
2018-06-03T03:16:27.783Z,28.92
2018-06-03T03:18:55.836Z,41.58
2018-06-03T03:21:23.903Z,23.75
2018-06-03T03:23:51.950Z,28.65
2018-06-03T03:26:19.989Z,34.75
2018-06-03T03:28:48.036Z,26.07
2018-06-03T03:31:16.079Z,29.48
2018-06-03T03:33:44.121Z,29.15
2018-06-03T03:36:12.229Z,36.50
2018-06-03T03:38:40.393Z,44.45
2018-06-03T03:41:08.453Z,37.63
2018-06-03T03:43:36.548Z,39.23
2018-06-03T03:46:04.596Z,30.52
2018-06-03T03:48:32.656Z,34.33
2018-06-03T03:51:00.712Z,34.40
2018-06-03T03:53:28.748Z,28.42
2018-06-03T03:55:56.781Z,36.28
2018-06-03T03:58:24.881Z,32.53
2018-06-03T04:00:52.913Z,36.35
2018-06-03T04:03:20.960Z,37.70
2018-06-03T04:05:48.996Z,39.83
2018-06-03T04:08:17.040Z,37.73
2018-06-03T04:10:45.096Z,35.70
2018-06-03T04:13:13.185Z,44.70
2018-06-03T04:15:41.216Z,39.85
2018-06-03T04:18:09.311Z,38.48
2018-06-03T04:20:37.353Z,44.77
2018-06-03T04:23:05.413Z,34.92
2018-06-03T04:25:33.504Z,32.00
2018-06-03T04:28:01.580Z,47.40
2018-06-03T04:30:29.716Z,31.23
2018-06-03T04:32:57.879Z,34.80
2018-06-03T04:35:25.924Z,40.63
2018-06-03T04:37:53.963Z,41.65
2018-06-03T04:40:22.140Z,34.67
2018-06-03T04:42:50.180Z,31.07
2018-06-03T04:45:18.294Z,41.92
2018-06-03T04:47:46.345Z,38.88
2018-06-03T04:50:14.431Z,37.45
2018-06-03T04:52:42.492Z,34.05
2018-06-03T04:55:10.535Z,45.23
2018-06-03T04:57:38.568Z,39.20
2018-06-03T05:00:06.651Z,44.98
2018-06-03T05:02:34.687Z,37.58
2018-06-03T05:05:02.739Z,36.83
2018-06-03T05:07:30.810Z,46.25
2018-06-03T05:09:58.888Z,36.20
2018-06-03T05:12:26.947Z,31.73
2018-06-03T05:14:55.033Z,31.42
2018-06-03T05:17:23.069Z,33.83
2018-06-03T05:19:51.168Z,25.37
2018-06-03T05:22:19.211Z,28.57
2018-06-03T05:24:47.370Z,26.07
2018-06-03T05:27:15.445Z,27.93
2018-06-03T05:29:43.476Z,26.02
2018-06-03T05:32:11.508Z,30.00
2018-06-03T05:34:39.589Z,23.25
2018-06-03T05:37:07.627Z,26.33
2018-06-03T05:39:35.832Z,27.25
2018-06-03T05:42:03.890Z,25.43
2018-06-03T05:44:31.994Z,21.42
2018-06-03T05:47:00.020Z,26.35
2018-06-03T05:49:28.068Z,30.50
2018-06-03T05:52:02.808Z,29.00
2018-06-03T05:54:30.868Z,26.27
2018-06-03T05:56:58.892Z,26.73
2018-06-03T05:59:26.942Z,31.80
2018-06-03T06:01:54.988Z,31.35
2018-06-03T06:04:23.040Z,27.90
2018-06-03T06:06:51.063Z,24.87
2018-06-03T06:09:19.141Z,30.82
2018-06-03T06:11:47.172Z,31.90
2018-06-03T06:14:15.235Z,34.90
2018-06-03T06:16:43.321Z,34.35
2018-06-03T06:19:11.371Z,28.12
2018-06-03T06:21:39.434Z,29.90
2018-06-03T06:24:07.539Z,31.42
2018-06-03T06:26:35.571Z,34.50
2018-06-03T06:29:03.633Z,35.15
2018-06-03T06:31:31.672Z,40.17
2018-06-03T06:33:59.717Z,28.92
2018-06-03T06:36:27.786Z,33.00
2018-06-03T06:38:55.841Z,39.35
2018-06-03T06:41:23.924Z,33.13
2018-06-03T06:43:51.970Z,30.82
2018-06-03T06:46:20.055Z,25.65
2018-06-03T06:48:48.141Z,28.00
2018-06-03T06:51:16.196Z,32.53
2018-06-03T06:53:44.273Z,26.07
2018-06-03T06:56:12.337Z,26.20
2018-06-03T06:58:40.409Z,21.57
2018-06-03T07:01:08.456Z,24.60
2018-06-03T07:03:36.566Z,31.62
2018-06-03T07:06:04.807Z,27.77
2018-06-03T07:08:32.900Z,28.77
2018-06-03T07:11:00.975Z,24.70
2018-06-03T07:13:29.036Z,31.35
2018-06-03T07:15:57.121Z,28.90
2018-06-03T07:18:25.176Z,29.55
2018-06-03T07:20:53.300Z,30.68
2018-06-03T07:23:21.373Z,23.22
2018-06-03T07:25:49.397Z,23.62
2018-06-03T07:28:17.456Z,24.00
2018-06-03T07:30:45.528Z,26.05
2018-06-03T07:33:13.600Z,24.65
2018-06-03T07:35:41.656Z,24.65
2018-06-03T07:38:09.700Z,22.93
2018-06-03T07:40:37.755Z,27.82
2018-06-03T07:43:05.828Z,27.13
2018-06-03T07:45:33.893Z,28.85
2018-06-03T07:48:01.950Z,28.23
2018-06-03T07:50:30.012Z,35.80
2018-06-03T07:52:58.056Z,27.55
2018-06-03T07:55:26.117Z,28.90
2018-06-03T07:57:54.889Z,25.30
2018-06-03T08:00:22.952Z,28.10
2018-06-03T08:02:51.020Z,26.97
2018-06-03T08:05:19.168Z,30.97
2018-06-03T08:07:47.242Z,27.58
2018-06-03T08:10:15.279Z,31.95
2018-06-03T08:12:43.342Z,27.77
2018-06-03T08:15:11.389Z,28.20
2018-06-03T08:17:39.441Z,29.00
2018-06-03T08:20:07.500Z,29.37
2018-06-03T08:22:35.603Z,28.27
2018-06-03T08:25:03.679Z,30.57
2018-06-03T08:27:31.747Z,34.50
2018-06-03T08:29:59.820Z,36.03
2018-06-03T08:32:27.895Z,39.33
2018-06-03T08:34:55.945Z,38.25
2018-06-03T08:37:24.008Z,26.30
2018-06-03T08:39:52.812Z,29.87
2018-06-03T08:42:20.865Z,33.65
2018-06-03T08:44:48.924Z,31.97
2018-06-03T08:47:16.964Z,29.57
2018-06-03T08:49:45.028Z,35.35
2018-06-03T08:52:13.080Z,29.82
2018-06-03T08:54:41.140Z,38.53
2018-06-03T08:57:09.183Z,33.90
2018-06-03T08:59:37.237Z,41.48
2018-06-03T09:02:05.313Z,35.05
2018-06-03T09:04:33.356Z,34.88
2018-06-03T09:07:01.489Z,39.48
2018-06-03T09:09:29.481Z,44.35
2018-06-03T09:11:57.532Z,38.20
2018-06-03T09:14:25.583Z,43.00
2018-06-03T09:16:53.640Z,36.00
2018-06-03T09:19:21.697Z,39.65
2018-06-03T09:21:49.764Z,30.10
2018-06-03T09:24:17.819Z,40.58
2018-06-03T09:26:45.909Z,34.27
2018-06-03T09:29:13.965Z,27.07
2018-06-03T09:31:42.044Z,30.65
2018-06-03T09:34:10.093Z,29.27
2018-06-03T09:36:38.146Z,30.52
2018-06-03T09:39:08.123Z,39.75
2018-06-03T09:41:36.193Z,35.98
2018-06-03T09:44:04.494Z,44.53
2018-06-03T09:46:32.548Z,34.73
2018-06-03T09:49:00.624Z,32.83
2018-06-03T09:51:28.701Z,37.03
2018-06-03T09:53:56.857Z,38.42
2018-06-03T09:56:24.941Z,35.65
2018-06-03T09:58:53.003Z,34.78
2018-06-03T10:01:21.055Z,34.43
2018-06-03T10:03:49.148Z,29.70
2018-06-03T10:06:17.195Z,30.32
2018-06-03T10:08:45.244Z,41.23
2018-06-03T10:11:13.315Z,32.90
2018-06-03T10:13:41.488Z,37.55
2018-06-03T10:16:09.760Z,42.27
2018-06-03T10:18:37.884Z,38.42
2018-06-03T10:21:05.949Z,33.95
2018-06-03T10:23:34.192Z,37.90
2018-06-03T10:26:02.240Z,36.50
2018-06-03T10:28:30.296Z,25.55
2018-06-03T10:30:58.525Z,29.00
2018-06-03T10:33:26.615Z,30.70
2018-06-03T10:35:54.726Z,24.95
2018-06-03T10:38:22.793Z,24.20
2018-06-03T10:40:50.835Z,25.92
2018-06-03T10:43:18.900Z,32.55
2018-06-03T10:45:46.968Z,24.20
2018-06-03T10:48:15.093Z,26.10
2018-06-03T10:50:43.188Z,23.35
2018-06-03T10:53:11.259Z,21.85
2018-06-03T10:55:39.441Z,36.83
2018-06-03T10:58:07.504Z,39.03
2018-06-03T11:00:35.550Z,40.63
2018-06-03T11:03:03.613Z,29.48
2018-06-03T11:05:31.687Z,30.30
2018-06-03T11:07:59.701Z,29.85
2018-06-03T11:10:27.756Z,29.85
2018-06-03T11:12:55.861Z,30.80
2018-06-03T11:15:23.931Z,33.05
2018-06-03T11:17:51.984Z,24.30
2018-06-03T11:20:20.096Z,29.87
2018-06-03T11:22:48.173Z,27.00
2018-06-03T11:25:16.265Z,28.23
2018-06-03T11:27:44.345Z,24.75
2018-06-03T11:30:12.421Z,36.35
2018-06-03T11:32:40.485Z,31.95
2018-06-03T11:35:08.564Z,24.52
2018-06-03T11:37:36.640Z,25.32
2018-06-03T11:40:04.705Z,36.00
2018-06-03T11:42:32.792Z,32.93
2018-06-03T11:45:00.921Z,33.85
2018-06-03T11:47:29.026Z,42.65
2018-06-03T11:49:57.177Z,32.08
2018-06-03T11:52:25.252Z,35.05
2018-06-03T11:54:53.350Z,37.40
2018-06-03T11:57:21.442Z,31.68
2018-06-03T11:59:49.545Z,38.23
2018-06-03T12:02:18.765Z,42.67
2018-06-03T12:04:47.279Z,42.78
2018-06-03T12:07:15.362Z,45.40
2018-06-03T12:09:43.479Z,36.73
2018-06-03T12:12:11.534Z,48.90
2018-06-03T12:14:39.616Z,39.67
2018-06-03T12:17:07.672Z,28.50
2018-06-03T12:19:35.724Z,32.53
2018-06-03T12:22:03.805Z,37.85
2018-06-03T12:24:31.883Z,43.42
2018-06-03T12:27:06.395Z,32.17
2018-06-03T12:29:34.492Z,29.05
2018-06-03T12:32:02.558Z,27.27
2018-06-03T12:34:30.633Z,34.53
2018-06-03T12:36:58.762Z,27.95
2018-06-03T12:39:26.843Z,50.58
2018-06-03T12:44:29.329Z,46.98
2018-06-03T12:46:57.416Z,43.05
2018-06-03T12:49:25.505Z,47.23
2018-06-03T12:51:53.582Z,41.63
2018-06-03T12:54:21.653Z,40.43
2018-06-03T12:56:49.746Z,45.48
2018-06-03T12:59:17.844Z,47.33
2018-06-03T13:01:45.916Z,46.95
2018-06-03T13:04:13.988Z,39.25
2018-06-03T13:06:42.096Z,34.20
2018-06-03T13:09:10.196Z,27.82
2018-06-03T13:11:38.281Z,37.40
2018-06-03T13:14:06.371Z,42.33
2018-06-03T13:16:34.438Z,38.30
2018-06-03T13:19:02.510Z,36.77
2018-06-03T13:21:30.604Z,29.75
2018-06-03T13:23:58.680Z,47.08
2018-06-03T13:26:26.756Z,44.75
2018-06-03T13:28:54.814Z,32.78
2018-06-03T13:31:22.888Z,38.95
2018-06-03T13:33:50.957Z,29.30
2018-06-03T13:36:19.027Z,37.23
2018-06-03T13:38:47.109Z,37.40
2018-06-03T13:41:15.184Z,31.02
2018-06-03T13:43:43.254Z,27.93
2018-06-03T13:46:11.320Z,35.38
2018-06-03T13:48:39.396Z,40.08
2018-06-03T13:51:07.468Z,28.00
2018-06-03T13:53:35.537Z,36.98
2018-06-03T13:56:03.612Z,34.48
2018-06-03T13:58:31.692Z,26.10
2018-06-03T14:00:59.798Z,38.95
2018-06-03T14:03:27.857Z,31.23
2018-06-03T14:05:55.944Z,35.75
2018-06-03T14:08:24.008Z,31.57
2018-06-03T14:10:52.081Z,35.58
2018-06-03T14:13:20.154Z,36.50
2018-06-03T14:15:48.241Z,30.30
2018-06-03T14:18:16.338Z,44.90
2018-06-03T14:20:44.381Z,31.95
2018-06-03T14:23:12.456Z,35.68
2018-06-03T14:25:40.506Z,31.25
2018-06-03T14:28:08.552Z,48.23
2018-06-03T14:30:36.606Z,27.37
2018-06-03T14:33:04.673Z,40.75
2018-06-03T14:35:32.771Z,32.50
2018-06-03T14:38:00.807Z,31.37
2018-06-03T14:40:28.878Z,40.65
2018-06-03T14:42:56.948Z,32.10
2018-06-03T14:45:24.996Z,42.83
2018-06-03T14:47:53.053Z,34.80
2018-06-03T14:50:21.112Z,49.23
2018-06-03T14:52:49.168Z,30.52
2018-06-03T14:55:17.215Z,28.90
2018-06-03T14:57:45.285Z,33.67
2018-06-03T15:00:13.305Z,34.13
2018-06-03T15:02:41.385Z,36.30
2018-06-03T15:05:09.471Z,30.23
2018-06-03T15:07:37.533Z,33.33
2018-06-03T15:10:05.641Z,21.68
2018-06-03T15:12:33.712Z,35.10
2018-06-03T15:15:01.771Z,40.40
2018-06-03T15:17:29.821Z,36.53
2018-06-03T15:19:57.885Z,31.45
2018-06-03T15:22:25.969Z,31.82
2018-06-03T15:24:54.057Z,38.15
2018-06-03T15:27:22.170Z,39.13
2018-06-03T15:29:50.356Z,32.78
2018-06-03T15:32:18.421Z,24.15
2018-06-03T15:34:46.498Z,32.20
2018-06-03T15:37:14.545Z,36.93
2018-06-03T15:39:42.644Z,30.15
2018-06-03T15:42:10.708Z,35.80
2018-06-03T15:44:38.755Z,36.48
2018-06-03T15:47:06.816Z,38.67
2018-06-03T15:49:34.864Z,30.62
2018-06-03T15:52:02.916Z,39.67
2018-06-03T15:54:30.960Z,31.90
2018-06-03T15:56:59.062Z,28.47
2018-06-03T15:59:27.107Z,18.77
2018-06-03T16:01:55.170Z,28.30
2018-06-03T16:04:23.260Z,36.55
2018-06-03T16:06:51.310Z,31.68
2018-06-03T16:09:19.357Z,23.70
2018-06-03T16:11:47.416Z,32.00
2018-06-03T16:14:15.536Z,27.07
2018-06-03T16:16:43.594Z,26.70
2018-06-03T16:19:11.743Z,31.95
2018-06-03T16:21:39.753Z,26.30
2018-06-03T16:24:07.817Z,28.00
2018-06-03T16:26:35.882Z,37.70
2018-06-03T16:29:03.949Z,32.63
2018-06-03T16:31:32.045Z,33.65
2018-06-03T16:34:00.105Z,40.95
2018-06-03T16:36:28.158Z,33.53
2018-06-03T16:38:56.219Z,30.20
2018-06-03T16:41:24.272Z,25.82
2018-06-03T16:43:52.305Z,22.95
2018-06-03T16:46:20.471Z,22.67
2018-06-03T16:48:48.521Z,27.90
2018-06-03T16:51:16.580Z,21.27
2018-06-03T16:53:44.629Z,25.40
2018-06-03T16:56:12.737Z,22.98
2018-06-03T16:58:40.908Z,27.93
2018-06-03T17:01:08.973Z,23.42
2018-06-03T17:03:37.009Z,26.62
2018-06-03T17:06:05.092Z,16.67
2018-06-03T17:08:33.143Z,22.65
2018-06-03T17:11:01.214Z,23.67
2018-06-03T17:13:29.268Z,21.23
2018-06-03T17:15:57.336Z,22.17
2018-06-03T17:18:25.396Z,24.00
2018-06-03T17:20:53.537Z,21.68
2018-06-03T17:23:21.620Z,21.23
2018-06-03T17:25:49.726Z,23.32
2018-06-03T17:28:17.807Z,15.53
2018-06-03T17:30:45.861Z,20.40
2018-06-03T17:33:13.930Z,15.78
2018-06-03T17:35:42.020Z,23.87
2018-06-03T17:38:10.105Z,23.62
2018-06-03T17:40:38.173Z,26.02
2018-06-03T17:43:06.245Z,23.65
2018-06-03T17:45:34.336Z,21.45
2018-06-03T17:48:02.407Z,23.77
2018-06-03T17:50:30.469Z,15.58
2018-06-03T17:52:58.549Z,15.98
2018-06-03T17:55:26.596Z,16.70
2018-06-03T17:57:54.720Z,20.48
2018-06-03T18:00:22.795Z,17.80
2018-06-03T18:02:50.897Z,18.85
2018-06-03T18:05:18.981Z,21.07
2018-06-03T18:07:47.053Z,20.48
2018-06-03T18:10:15.137Z,20.60
2018-06-03T18:12:43.192Z,21.40
2018-06-03T18:15:11.257Z,17.27
2018-06-03T18:17:39.336Z,19.30
2018-06-03T18:20:07.401Z,22.07
2018-06-03T18:22:35.522Z,31.65
2018-06-03T18:25:03.580Z,23.95
2018-06-03T18:27:31.648Z,20.60
2018-06-03T18:29:59.763Z,14.53
2018-06-03T18:32:27.882Z,16.17
2018-06-03T18:34:55.909Z,18.70
2018-06-03T18:37:24.061Z,18.02
2018-06-03T18:39:52.152Z,16.85
2018-06-03T18:42:20.264Z,15.53
2018-06-03T18:44:48.595Z,12.88
2018-06-03T18:47:16.653Z,21.82
2018-06-03T18:49:44.734Z,14.15
2018-06-03T18:52:12.809Z,15.08
2018-06-03T18:54:40.870Z,15.83
2018-06-03T18:57:08.910Z,16.85
2018-06-03T18:59:37.021Z,15.32
2018-06-03T19:02:05.082Z,14.78
2018-06-03T19:04:33.153Z,22.48
2018-06-03T19:07:01.213Z,15.05
2018-06-03T19:09:29.283Z,14.65
2018-06-03T19:11:57.368Z,20.00
2018-06-03T19:14:25.427Z,20.17
2018-06-03T19:16:53.501Z,22.67
2018-06-03T19:19:21.590Z,15.68
2018-06-03T19:21:49.612Z,23.83
2018-06-03T19:24:17.673Z,23.60
2018-06-03T19:26:45.713Z,11.35
2018-06-03T19:29:13.782Z,21.50
2018-06-03T19:31:41.829Z,17.50
2018-06-03T19:34:09.870Z,17.70
2018-06-03T19:36:37.972Z,15.83
2018-06-03T19:39:07.966Z,11.95
2018-06-03T19:41:36.429Z,16.23
2018-06-03T19:44:04.498Z,17.10
2018-06-03T19:46:32.561Z,13.00
2018-06-03T19:49:00.637Z,17.27
2018-06-03T19:51:28.709Z,10.75
2018-06-03T19:53:56.785Z,12.20
2018-06-03T19:56:24.881Z,11.90
2018-06-03T19:58:52.955Z,12.20
2018-06-03T20:01:21.024Z,11.40
2018-06-03T20:03:49.102Z,13.18
2018-06-03T20:06:18.007Z,17.30
2018-06-03T20:08:46.040Z,22.32
2018-06-03T20:11:14.100Z,12.18
2018-06-03T20:13:42.159Z,15.30
2018-06-03T20:16:10.237Z,14.25
2018-06-03T20:18:38.292Z,15.30
2018-06-03T20:21:06.420Z,14.13
2018-06-03T20:23:34.472Z,14.55
2018-06-03T20:26:02.541Z,11.03
2018-06-03T20:28:30.612Z,14.60
2018-06-03T20:30:58.817Z,14.33
2018-06-03T20:33:26.872Z,13.22
2018-06-03T20:35:54.925Z,17.17
2018-06-03T20:38:22.986Z,9.63
2018-06-03T20:40:51.047Z,8.73
2018-06-03T20:43:19.109Z,11.78
2018-06-03T20:45:47.192Z,11.97
2018-06-03T20:48:15.250Z,14.25
2018-06-03T20:50:43.333Z,13.03
2018-06-03T20:53:11.397Z,16.25
2018-06-03T20:55:39.470Z,10.58
2018-06-03T20:58:07.545Z,16.35
2018-06-03T21:00:35.624Z,11.53
2018-06-03T21:03:03.712Z,12.50
2018-06-03T21:05:31.784Z,13.32
2018-06-03T21:07:59.834Z,13.15
2018-06-03T21:10:27.900Z,12.10
2018-06-03T21:12:55.999Z,11.12
2018-06-03T21:15:24.051Z,9.25
2018-06-03T21:17:52.169Z,10.40
2018-06-03T21:20:20.260Z,8.08
2018-06-03T21:22:48.320Z,9.53
2018-06-03T21:25:16.388Z,9.00
2018-06-03T21:27:44.460Z,10.23
2018-06-03T21:30:12.560Z,9.08
2018-06-03T21:32:40.618Z,6.83
2018-06-03T21:35:08.676Z,8.78
2018-06-03T21:37:36.736Z,8.08
2018-06-03T21:40:04.801Z,10.00
2018-06-03T21:42:32.866Z,10.80
2018-06-03T21:45:00.958Z,9.75
2018-06-03T21:47:29.016Z,9.43
2018-06-03T21:49:57.089Z,7.90
2018-06-03T21:52:25.172Z,6.08
2018-06-03T21:54:53.233Z,9.88
2018-06-03T21:57:21.300Z,8.58
2018-06-03T21:59:49.372Z,11.45
2018-06-03T22:02:17.445Z,8.53
2018-06-03T22:04:45.553Z,11.55
2018-06-03T22:07:13.647Z,12.13
2018-06-03T22:09:41.709Z,6.92
2018-06-03T22:12:09.768Z,7.50
2018-06-03T22:14:37.852Z,13.40
2018-06-03T22:17:05.930Z,10.50
2018-06-03T22:19:34.029Z,7.67
2018-06-03T22:22:02.130Z,9.00
2018-06-03T22:24:30.189Z,8.28
2018-06-03T22:26:58.276Z,10.03
2018-06-03T22:29:26.320Z,12.40
2018-06-03T22:31:54.392Z,8.70
2018-06-03T22:34:22.452Z,10.85
2018-06-03T22:36:50.517Z,11.33
2018-06-03T22:39:18.592Z,14.07
2018-06-03T22:41:46.656Z,12.53
2018-06-03T22:44:14.724Z,9.73
2018-06-03T22:46:42.797Z,8.00
2018-06-03T22:49:10.868Z,8.78
2018-06-03T22:51:38.935Z,8.95
2018-06-03T22:54:07.009Z,14.93
2018-06-03T22:56:46.533Z,11.40
2018-06-03T22:59:14.613Z,8.43
2018-06-03T23:01:42.694Z,11.95
2018-06-03T23:04:10.786Z,10.38
2018-06-03T23:06:38.853Z,10.38
2018-06-03T23:09:06.934Z,11.48
2018-06-03T23:11:35.034Z,7.47
2018-06-03T23:14:03.084Z,10.63
2018-06-03T23:16:31.176Z,11.80
2018-06-03T23:18:59.236Z,15.80
2018-06-03T23:21:27.308Z,8.53
2018-06-03T23:23:55.376Z,8.88
2018-06-03T23:26:23.445Z,9.45
2018-06-03T23:28:51.537Z,8.18
2018-06-03T23:31:19.597Z,8.35
2018-06-03T23:33:47.652Z,11.85
2018-06-03T23:36:15.709Z,5.83
2018-06-03T23:38:43.774Z,8.73
2018-06-03T23:41:11.836Z,10.32
2018-06-03T23:43:39.883Z,9.45
2018-06-03T23:46:07.959Z,9.75
2018-06-03T23:48:36.024Z,13.58
2018-06-03T23:51:04.097Z,8.28
2018-06-03T23:53:32.153Z,10.20
2018-06-03T23:56:00.236Z,7.75
2018-06-03T23:58:28.298Z,10.15
